createdAt,value
2022-09-23T00:01:08.953Z,101634.06
2022-09-23T00:03:37.315Z,101642.56
2022-09-23T00:06:19.270Z,101624.91
2022-09-23T00:08:46.797Z,101641.72
2022-09-23T00:11:15.474Z,101631.75
2022-09-23T00:13:43.735Z,101632.47
2022-09-23T00:16:12.950Z,101607.00
2022-09-23T00:18:39.876Z,101616.59
2022-09-23T00:21:09.210Z,101613.16
2022-09-23T00:23:37.830Z,101625.09
2022-09-23T00:26:06.651Z,101627.13
2022-09-23T00:28:33.784Z,101616.41
2022-09-23T00:31:04.821Z,101618.91
2022-09-23T00:33:32.341Z,101621.94
2022-09-23T00:36:04.646Z,101616.97
2022-09-23T00:38:31.418Z,101613.06
2022-09-23T00:40:58.415Z,101628.00
2022-09-23T00:43:40.316Z,101621.34
2022-09-23T00:46:09.186Z,101627.91
2022-09-23T00:48:39.668Z,101614.50
2022-09-23T00:51:09.917Z,101628.91
2022-09-23T00:53:36.444Z,101613.56
2022-09-23T00:56:07.292Z,101596.66
2022-09-23T00:58:37.264Z,101614.13
2022-09-23T01:01:04.624Z,101614.50
2022-09-23T01:03:31.614Z,101610.50
2022-09-23T01:05:59.196Z,101610.50
2022-09-23T01:08:27.328Z,101617.00
2022-09-23T01:11:10.085Z,101615.78
2022-09-23T01:13:56.072Z,101607.94
2022-09-23T01:16:36.679Z,101609.94
2022-09-23T01:19:57.014Z,101606.28
2022-09-23T01:22:41.773Z,101606.47
2022-09-23T01:25:31.599Z,101606.31
2022-09-23T01:28:20.701Z,101586.78
2022-09-23T01:30:52.875Z,101593.50
2022-09-23T01:33:29.890Z,101591.00
2022-09-23T01:36:14.807Z,101586.84
2022-09-23T01:39:02.543Z,101591.56
2022-09-23T01:41:48.163Z,101579.47
2022-09-23T01:44:34.893Z,101573.81
2022-09-23T01:47:20.083Z,101574.84
2022-09-23T01:49:55.100Z,101558.00
2022-09-23T01:52:39.323Z,101562.84
2022-09-23T01:55:09.144Z,101560.88
2022-09-23T01:57:44.587Z,101567.56
2022-09-23T02:00:16.124Z,101560.56
2022-09-23T02:03:05.622Z,101566.63
2022-09-23T02:05:42.023Z,101568.47
2022-09-23T02:08:20.506Z,101569.28
2022-09-23T02:10:52.099Z,101558.88
2022-09-23T02:13:43.179Z,101560.56
2022-09-23T02:16:22.416Z,101526.41
2022-09-23T02:19:01.476Z,101555.03
2022-09-23T02:21:34.313Z,101541.84
2022-09-23T02:24:09.076Z,101542.94
2022-09-23T02:26:44.798Z,101547.97
2022-09-23T02:29:20.908Z,101549.47
2022-09-23T02:32:00.269Z,101550.78
2022-09-23T02:34:50.593Z,101542.94
2022-09-23T02:37:48.102Z,101542.09
2022-09-23T02:40:23.569Z,101538.41
2022-09-23T02:43:17.116Z,101501.91
2022-09-23T02:45:43.644Z,101532.25
2022-09-23T02:48:25.219Z,101532.09
2022-09-23T02:50:52.457Z,101526.75
2022-09-23T02:53:18.941Z,101512.81
2022-09-23T02:55:45.677Z,101525.03
2022-09-23T02:58:14.246Z,101518.19
2022-09-23T03:01:06.093Z,101520.56
2022-09-23T03:04:05.056Z,101523.78
2022-09-23T03:06:44.587Z,101509.38
2022-09-23T03:09:19.884Z,101498.59
2022-09-23T03:11:50.026Z,101495.38
2022-09-23T03:14:26.464Z,101477.00
2022-09-23T03:16:58.395Z,101486.56
2022-09-23T03:19:51.185Z,101494.03
2022-09-23T03:22:35.319Z,101493.06
2022-09-23T03:25:09.196Z,101493.16
2022-09-23T03:27:37.882Z,101498.13
2022-09-23T03:30:05.235Z,101502.91
2022-09-23T03:32:34.827Z,101508.25
2022-09-23T03:35:03.587Z,101502.91
2022-09-23T03:37:35.727Z,101499.59
2022-09-23T03:40:23.834Z,101502.25
2022-09-23T03:42:51.210Z,101499.16
2022-09-23T03:45:23.259Z,101490.47
2022-09-23T03:47:49.698Z,101495.81
2022-09-23T03:50:17.371Z,101483.09
2022-09-23T03:52:44.526Z,101472.75
2022-09-23T03:55:11.440Z,101468.69
2022-09-23T03:57:38.138Z,101467.66
2022-09-23T04:00:07.355Z,101461.50
2022-09-23T04:02:34.465Z,101471.47
2022-09-23T04:05:01.326Z,101453.75
2022-09-23T04:07:27.733Z,101469.63
2022-09-23T04:09:55.934Z,101469.25
2022-09-23T04:12:22.339Z,101457.69
2022-09-23T04:14:48.777Z,101458.16
2022-09-23T04:17:15.345Z,101453.00
2022-09-23T04:19:42.044Z,101455.50
2022-09-23T04:22:09.528Z,101446.81
2022-09-23T04:24:35.962Z,101455.50
2022-09-23T04:27:02.471Z,101452.81
2022-09-23T04:29:29.008Z,101455.75
2022-09-23T04:31:55.745Z,101450.78
2022-09-23T04:34:22.212Z,101447.09
2022-09-23T04:36:49.122Z,101454.56
2022-09-23T04:39:16.848Z,101456.03
2022-09-23T04:41:44.917Z,101451.34
2022-09-23T04:44:12.676Z,101451.53
2022-09-23T04:46:40.780Z,101459.38
2022-09-23T04:49:07.968Z,101450.16
2022-09-23T04:51:34.549Z,101459.63
2022-09-23T04:54:00.947Z,101452.44
2022-09-23T04:56:32.581Z,101457.22
2022-09-23T04:59:01.717Z,101447.53
2022-09-23T05:01:31.165Z,101452.34
2022-09-23T05:04:02.662Z,101451.94
2022-09-23T05:06:37.050Z,101451.41
2022-09-23T05:09:06.775Z,101451.41
2022-09-23T05:11:34.727Z,101456.75
2022-09-23T05:14:01.398Z,101458.88
2022-09-23T05:16:27.993Z,101450.84
2022-09-23T05:18:54.884Z,101454.78
2022-09-23T05:21:23.621Z,101433.28
2022-09-23T05:23:54.395Z,101452.19
2022-09-23T05:26:25.433Z,101411.13
2022-09-23T05:28:52.799Z,101442.94
2022-09-23T05:31:21.775Z,101450.78
2022-09-23T05:33:51.996Z,101446.09
2022-09-23T05:36:20.471Z,101449.78
2022-09-23T05:38:48.584Z,101434.47
2022-09-23T05:41:16.601Z,101456.03
2022-09-23T05:43:43.317Z,101455.03
2022-09-23T05:46:15.793Z,101457.31
2022-09-23T05:48:44.019Z,101460.00
2022-09-23T05:51:14.117Z,101451.78
2022-09-23T05:53:41.682Z,101450.75
2022-09-23T05:56:08.229Z,101454.91
2022-09-23T05:58:34.730Z,101451.38
2022-09-23T06:01:18.077Z,101417.19
2022-09-23T06:03:49.139Z,101457.19
2022-09-23T06:06:20.181Z,101458.88
2022-09-23T06:08:47.832Z,101463.00
2022-09-23T06:11:14.905Z,101467.34
2022-09-23T06:13:41.861Z,101476.84
2022-09-23T06:16:11.623Z,101448.50
2022-09-23T06:18:40.118Z,101463.72
2022-09-23T06:21:07.343Z,101457.50
2022-09-23T06:23:35.213Z,101459.44
2022-09-23T06:26:05.973Z,101447.44
2022-09-23T06:28:34.004Z,101457.22
2022-09-23T06:31:03.430Z,101453.13
2022-09-23T06:33:36.820Z,101451.47
2022-09-23T06:36:06.035Z,101446.94
2022-09-23T06:38:34.174Z,101457.72
2022-09-23T06:41:01.976Z,101453.63
2022-09-23T06:43:28.978Z,101449.94
2022-09-23T06:45:57.096Z,101451.19
2022-09-23T06:48:24.753Z,101454.13
2022-09-23T06:50:53.677Z,101449.59
2022-09-23T06:53:24.194Z,101451.88
2022-09-23T06:56:02.444Z,101454.66
2022-09-23T06:58:30.071Z,101454.47
2022-09-23T07:01:02.491Z,101439.44
2022-09-23T07:03:29.433Z,101428.25
2022-09-23T07:05:56.814Z,101442.00
2022-09-23T07:08:25.026Z,101450.09
2022-09-23T07:10:53.003Z,101441.63
2022-09-23T07:13:19.435Z,101443.72
2022-09-23T07:15:54.027Z,101439.63
2022-09-23T07:18:23.878Z,101442.94
2022-09-23T07:20:52.382Z,101440.72
2022-09-23T07:23:19.326Z,101437.66
2022-09-23T07:25:46.872Z,101436.84
2022-09-23T07:28:13.544Z,101439.97
2022-09-23T07:30:49.003Z,101438.59
2022-09-23T07:33:31.020Z,101430.97
2022-09-23T07:35:58.840Z,101434.06
2022-09-23T07:38:30.237Z,101439.25
2022-09-23T07:41:23.771Z,101438.22
2022-09-23T07:43:50.901Z,101430.41
2022-09-23T07:46:18.178Z,101436.81
2022-09-23T07:48:46.071Z,101439.16
2022-09-23T07:51:18.754Z,101440.78
2022-09-23T07:53:49.822Z,101448.03
2022-09-23T07:56:19.065Z,101445.97
2022-09-23T07:58:47.046Z,101444.78
2022-09-23T08:01:13.719Z,101417.44
2022-09-23T08:03:40.216Z,101440.19
2022-09-23T08:06:12.063Z,101451.78
2022-09-23T08:08:43.306Z,101438.94
2022-09-23T08:11:13.220Z,101443.50
2022-09-23T08:13:40.221Z,101447.44
2022-09-23T08:16:06.893Z,101443.53
2022-09-23T08:18:34.020Z,101445.63
2022-09-23T08:21:01.024Z,101439.66
2022-09-23T08:23:27.764Z,101428.09
2022-09-23T08:26:02.586Z,101427.28
2022-09-23T08:28:29.919Z,101439.69
2022-09-23T08:30:56.363Z,101438.88
2022-09-23T08:33:23.961Z,101437.41
2022-09-23T08:35:51.433Z,101442.16
2022-09-23T08:38:18.489Z,101446.69
2022-09-23T08:40:48.462Z,101445.84
2022-09-23T08:43:26.732Z,101409.19
2022-09-23T08:45:56.101Z,101436.69
2022-09-23T08:48:29.395Z,101448.91
2022-09-23T08:51:03.374Z,101451.78
2022-09-23T08:53:33.418Z,101461.75
2022-09-23T08:56:05.066Z,101460.09
2022-09-23T08:58:53.593Z,101459.53
2022-09-23T09:01:31.597Z,101445.84
2022-09-23T09:04:01.075Z,101449.53
2022-09-23T09:06:52.450Z,101451.22
2022-09-23T09:09:30.507Z,101444.59
2022-09-23T09:12:10.612Z,101451.25
2022-09-23T09:14:51.893Z,101445.06
2022-09-23T09:17:48.375Z,101452.91
2022-09-23T09:20:23.948Z,101449.84
2022-09-23T09:22:55.928Z,101458.50
2022-09-23T09:25:45.923Z,101454.81
2022-09-23T09:28:43.372Z,101452.31
2022-09-23T09:31:33.534Z,101447.56
2022-09-23T09:34:26.289Z,101449.84
2022-09-23T09:37:07.389Z,101450.88
2022-09-23T09:39:35.680Z,101445.50
2022-09-23T09:42:03.658Z,101441.56
2022-09-23T09:44:37.105Z,101437.66
2022-09-23T09:47:03.693Z,101428.31
2022-09-23T09:49:45.511Z,101410.13
2022-09-23T09:52:19.195Z,101416.75
2022-09-23T09:54:45.514Z,101426.03
2022-09-23T09:57:37.790Z,101408.88
2022-09-23T10:00:21.385Z,101398.91
2022-09-23T10:03:16.585Z,101422.72
2022-09-23T10:05:45.964Z,101417.75
2022-09-23T10:08:18.455Z,101427.25
2022-09-23T10:10:54.870Z,101407.78
2022-09-23T10:13:24.249Z,101390.22
2022-09-23T10:15:54.752Z,101405.69
2022-09-23T10:18:34.504Z,101406.97
2022-09-23T10:21:08.603Z,101402.19
2022-09-23T10:23:40.470Z,101412.78
2022-09-23T10:26:08.246Z,101400.97
2022-09-23T10:28:52.834Z,101388.97
2022-09-23T10:31:34.728Z,101407.16
2022-09-23T10:34:19.164Z,101400.28
2022-09-23T10:36:55.498Z,101397.00
2022-09-23T10:39:40.534Z,101395.34
2022-09-23T10:42:35.371Z,101394.72
2022-09-23T10:45:39.692Z,101398.88
2022-09-23T10:48:23.153Z,101408.78
2022-09-23T10:50:52.306Z,101412.31
2022-09-23T10:53:34.626Z,101390.31
2022-09-23T10:56:21.371Z,101380.00
2022-09-23T10:59:10.169Z,101399.00
2022-09-23T11:02:28.075Z,101399.00
2022-09-23T11:05:14.472Z,101400.47
2022-09-23T11:07:52.864Z,101394.84
2022-09-23T11:10:45.803Z,101395.69
2022-09-23T11:13:27.944Z,101377.25
2022-09-23T11:16:32.033Z,101380.34
2022-09-23T11:19:13.717Z,101388.22
2022-09-23T11:22:01.964Z,101399.94
2022-09-23T11:24:41.495Z,101398.69
2022-09-23T11:27:20.342Z,101383.78
2022-09-23T11:29:49.695Z,101397.66
2022-09-23T11:32:45.261Z,101386.44
2022-09-23T11:35:27.917Z,101371.34
2022-09-23T11:38:15.929Z,101383.88
2022-09-23T11:40:46.696Z,101344.00
2022-09-23T11:43:23.411Z,101377.47
2022-09-23T11:46:02.133Z,101378.13
2022-09-23T11:48:38.631Z,101375.88
2022-09-23T11:51:13.123Z,101371.47
2022-09-23T11:53:56.235Z,101373.09
2022-09-23T11:56:35.725Z,101365.63
2022-09-23T11:59:38.785Z,101360.25
2022-09-23T12:02:20.983Z,101357.63
2022-09-23T12:04:58.504Z,101363.91
2022-09-23T12:07:48.259Z,101353.53
2022-09-23T12:10:15.720Z,101355.34
2022-09-23T12:12:54.262Z,101326.75
2022-09-23T12:15:52.921Z,101362.84
2022-09-23T12:18:42.154Z,101355.81
2022-09-23T12:21:53.318Z,101351.44
2022-09-23T12:24:47.662Z,101347.09
2022-09-23T12:27:23.920Z,101344.69
2022-09-23T12:29:58.672Z,101332.47
2022-09-23T12:32:26.446Z,101341.66
2022-09-23T12:34:53.636Z,101328.41
2022-09-23T12:37:26.445Z,101332.53
2022-09-23T12:39:54.080Z,101330.75
2022-09-23T12:42:24.984Z,101332.84
2022-09-23T12:45:34.914Z,101324.75
2022-09-23T12:48:04.139Z,101317.94
2022-09-23T12:50:52.924Z,101295.97
2022-09-23T12:53:34.792Z,101319.38
2022-09-23T12:56:15.713Z,101317.84
2022-09-23T12:58:42.186Z,101323.19
2022-09-23T13:01:14.595Z,101319.91
2022-09-23T13:04:09.150Z,101312.84
2022-09-23T13:06:51.981Z,101310.06
2022-09-23T13:09:26.866Z,101301.38
2022-09-23T13:11:59.867Z,101320.22
2022-09-23T13:14:28.521Z,101313.59
2022-09-23T13:16:58.390Z,101317.56
2022-09-23T13:19:28.209Z,101318.00
2022-09-23T13:21:54.530Z,101310.16
2022-09-23T13:24:25.107Z,101307.28
2022-09-23T13:27:00.214Z,101317.03
2022-09-23T13:29:33.288Z,101310.56
2022-09-23T13:32:01.963Z,101308.41
2022-09-23T13:34:38.610Z,101283.88
2022-09-23T13:37:22.743Z,101317.03
2022-09-23T13:39:49.731Z,101319.13
2022-09-23T13:42:28.199Z,101309.84
2022-09-23T13:44:59.047Z,101307.75
2022-09-23T13:47:29.187Z,101314.00
2022-09-23T13:49:56.191Z,101303.66
2022-09-23T13:52:26.933Z,101310.69
2022-09-23T13:54:53.912Z,101312.13
2022-09-23T13:57:31.206Z,101311.09
2022-09-23T14:00:21.287Z,101308.59
2022-09-23T14:02:47.859Z,101310.31
2022-09-23T14:05:23.042Z,101318.56
2022-09-23T14:07:54.573Z,101312.31
2022-09-23T14:10:23.497Z,101286.41
2022-09-23T14:12:52.594Z,101310.75
2022-09-23T14:15:21.150Z,101296.28
2022-09-23T14:17:54.712Z,101298.53
2022-09-23T14:20:22.254Z,101300.34
2022-09-23T14:23:02.317Z,101299.91
2022-09-23T14:25:28.946Z,101288.94
2022-09-23T14:28:00.281Z,101302.16
2022-09-23T14:30:27.016Z,101302.31
2022-09-23T14:32:53.809Z,101292.88
2022-09-23T14:35:25.964Z,101297.38
2022-09-23T14:38:16.874Z,101285.88
2022-09-23T14:41:23.890Z,101295.75
2022-09-23T14:43:58.812Z,101281.75
2022-09-23T14:46:30.709Z,101295.09
2022-09-23T14:49:12.156Z,101291.19
2022-09-23T14:51:53.950Z,101293.44
2022-09-23T14:54:34.559Z,101292.63
2022-09-23T14:57:03.799Z,101298.69
2022-09-23T14:59:37.293Z,101285.66
2022-09-23T15:02:31.257Z,101292.09
2022-09-23T15:05:21.689Z,101286.94
2022-09-23T15:07:58.515Z,101280.94
2022-09-23T15:10:32.678Z,101276.78
2022-09-23T15:13:08.162Z,101270.81
2022-09-23T15:15:35.853Z,101271.00
2022-09-23T15:18:17.967Z,101279.06
2022-09-23T15:20:53.417Z,101270.81
2022-09-23T15:23:42.565Z,101265.44
2022-09-23T15:26:20.354Z,101260.47
2022-09-23T15:28:50.414Z,101263.53
2022-09-23T15:31:19.636Z,101260.41
2022-09-23T15:33:50.537Z,101256.97
2022-09-23T15:36:21.690Z,101258.53
2022-09-23T15:38:48.498Z,101262.44
2022-09-23T15:41:15.685Z,101261.91
2022-09-23T15:43:42.151Z,101258.59
2022-09-23T15:46:22.461Z,101262.72
2022-09-23T15:48:59.048Z,101257.19
2022-09-23T15:51:26.889Z,101266.91
2022-09-23T15:53:54.920Z,101272.75
2022-09-23T15:56:22.759Z,101264.91
2022-09-23T15:58:49.716Z,101270.06
2022-09-23T16:01:33.776Z,101261.22
2022-09-23T16:04:01.368Z,101272.97
2022-09-23T16:06:27.967Z,101272.75
2022-09-23T16:08:55.684Z,101277.09
2022-09-23T16:11:31.057Z,101276.09
2022-09-23T16:13:59.487Z,101270.94
2022-09-23T16:16:27.759Z,101278.63
2022-09-23T16:18:54.567Z,101276.38
2022-09-23T16:21:24.955Z,101268.38
2022-09-23T16:24:04.382Z,101271.50
2022-09-23T16:26:35.757Z,101278.16
2022-09-23T16:29:02.387Z,101262.03
2022-09-23T16:31:31.491Z,101268.50
2022-09-23T16:34:02.422Z,101256.50
2022-09-23T16:36:39.534Z,101254.97
2022-09-23T16:39:08.803Z,101255.06
2022-09-23T16:41:35.640Z,101261.28
2022-09-23T16:44:04.485Z,101258.63
2022-09-23T16:46:32.411Z,101266.94
2022-09-23T16:49:00.385Z,101256.44
2022-09-23T16:51:30.507Z,101250.63
2022-09-23T16:53:58.640Z,101262.25
2022-09-23T16:56:28.963Z,101256.69
2022-09-23T16:58:56.459Z,101256.06
2022-09-23T17:01:47.930Z,101257.53
2022-09-23T17:04:16.609Z,101255.66
2022-09-23T17:06:44.369Z,101261.84
2022-09-23T17:09:11.793Z,101245.97
2022-09-23T17:11:38.230Z,101257.97
2022-09-23T17:14:06.027Z,101253.63
2022-09-23T17:16:34.584Z,101258.59
2022-09-23T17:19:07.421Z,101252.81
2022-09-23T17:21:34.358Z,101249.75
2022-09-23T17:24:01.372Z,101252.22
2022-09-23T17:26:28.809Z,101259.50
2022-09-23T17:28:56.478Z,101252.06
2022-09-23T17:31:25.125Z,101250.63
2022-09-23T17:33:52.664Z,101257.03
2022-09-23T17:36:20.490Z,101252.91
2022-09-23T17:38:48.346Z,101254.19
2022-09-23T17:41:15.526Z,101262.44
2022-09-23T17:43:42.086Z,101252.56
2022-09-23T17:46:12.725Z,101238.94
2022-09-23T17:48:41.446Z,101255.28
2022-09-23T17:51:10.874Z,101265.00
2022-09-23T17:53:38.935Z,101259.00
2022-09-23T17:56:23.282Z,101254.25
2022-09-23T17:58:50.078Z,101255.31
2022-09-23T18:01:21.869Z,101243.94
2022-09-23T18:03:52.680Z,101246.63
2022-09-23T18:06:21.291Z,101248.03
2022-09-23T18:08:49.614Z,101244.34
2022-09-23T18:11:26.975Z,101224.06
2022-09-23T18:14:01.796Z,101226.78
2022-09-23T18:16:39.742Z,101244.13
2022-09-23T18:19:07.969Z,101247.63
2022-09-23T18:21:37.123Z,101252.81
2022-09-23T18:24:30.886Z,101243.50
2022-09-23T18:26:50.548Z,101244.78
2022-09-23T18:29:17.238Z,101248.88
2022-09-23T18:31:45.065Z,101247.03
2022-09-23T18:34:16.823Z,101243.72
2022-09-23T18:36:44.409Z,101246.19
2022-09-23T18:39:11.030Z,101237.28
2022-09-23T18:41:37.644Z,101239.16
2022-09-23T18:44:04.473Z,101236.69
2022-09-23T18:46:31.695Z,101237.50
2022-09-23T18:49:17.488Z,101233.16
2022-09-23T18:52:02.144Z,101235.25
2022-09-23T18:54:29.066Z,101257.59
2022-09-23T18:56:56.604Z,101253.66
2022-09-23T18:59:27.809Z,101263.59
2022-09-23T19:01:57.617Z,101267.47
2022-09-23T19:04:25.598Z,101259.41
2022-09-23T19:06:53.933Z,101261.22
2022-09-23T19:09:20.577Z,101254.78
2022-09-23T19:11:52.030Z,101251.50
2022-09-23T19:14:18.636Z,101245.94
2022-09-23T19:16:45.081Z,101242.03
2022-09-23T19:19:11.673Z,101239.56
2022-09-23T19:21:38.107Z,101241.03
2022-09-23T19:24:07.604Z,101244.78
2022-09-23T19:26:37.544Z,101235.91
2022-09-23T19:29:05.616Z,101243.56
2022-09-23T19:31:39.124Z,101226.41
2022-09-23T19:34:10.633Z,101227.47
2022-09-23T19:36:39.332Z,101237.38
2022-09-23T19:39:27.454Z,101229.31
2022-09-23T19:41:58.695Z,101239.22
2022-09-23T19:44:28.525Z,101233.84
2022-09-23T19:46:56.953Z,101233.44
2022-09-23T19:49:24.797Z,101232.84
2022-09-23T19:51:52.930Z,101237.59
2022-09-23T19:54:20.747Z,101222.50
2022-09-23T19:56:48.675Z,101238.00
2022-09-23T19:59:18.762Z,101229.94
2022-09-23T20:01:46.813Z,101223.72
2022-09-23T20:04:13.349Z,101220.84
2022-09-23T20:06:40.959Z,101214.84
2022-09-23T20:09:07.627Z,101202.50
2022-09-23T20:11:34.554Z,101210.75
2022-09-23T20:14:03.246Z,101208.91
2022-09-23T20:16:32.783Z,101204.38
2022-09-23T20:19:00.855Z,101215.97
2022-09-23T20:21:29.221Z,101214.31
2022-09-23T20:23:56.251Z,101192.38
2022-09-23T20:26:41.480Z,101196.94
2022-09-23T20:29:08.946Z,101207.06
2022-09-23T20:31:36.044Z,101210.16
2022-09-23T20:34:05.608Z,101201.88
2022-09-23T20:36:33.286Z,101204.56
2022-09-23T20:39:01.998Z,101182.69
2022-09-23T20:41:31.199Z,101203.94
2022-09-23T20:44:01.078Z,101202.06
2022-09-23T20:46:28.920Z,101203.94
2022-09-23T20:48:56.757Z,101195.25
2022-09-23T20:51:24.900Z,101195.06
2022-09-23T20:53:52.803Z,101197.53
2022-09-23T20:56:22.867Z,101193.84
2022-09-23T20:58:50.793Z,101178.31
2022-09-23T21:01:18.345Z,101186.78
2022-09-23T21:03:47.858Z,101169.06
2022-09-23T21:06:16.738Z,101164.69
2022-09-23T21:08:44.613Z,101182.22
2022-09-23T21:11:14.936Z,101177.88
2022-09-23T21:13:48.327Z,101173.91
2022-09-23T21:16:16.141Z,101164.41
2022-09-23T21:18:43.315Z,101172.69
2022-09-23T21:21:10.974Z,101169.81
2022-09-23T21:23:39.061Z,101171.66
2022-09-23T21:26:11.252Z,101171.88
2022-09-23T21:28:39.886Z,101171.06
2022-09-23T21:31:25.435Z,101168.34
2022-09-23T21:33:56.867Z,101168.13
2022-09-23T21:36:25.510Z,101165.25
2022-09-23T21:38:52.279Z,101162.75
2022-09-23T21:41:19.482Z,101157.97
2022-09-23T21:43:45.951Z,101172.25
2022-09-23T21:46:14.433Z,101160.88
2022-09-23T21:48:42.421Z,101154.50
2022-09-23T21:51:15.298Z,101158.41
2022-09-23T21:53:43.026Z,101161.75
2022-09-23T21:56:20.675Z,101155.50
2022-09-23T21:58:47.561Z,101165.06
2022-09-23T22:01:15.579Z,101157.00
2022-09-23T22:03:45.855Z,101146.88
2022-09-23T22:06:19.580Z,101162.38
2022-09-23T22:08:46.669Z,101166.09
2022-09-23T22:11:33.508Z,101124.16
2022-09-23T22:14:01.958Z,101153.28
2022-09-23T22:16:29.882Z,101150.19
2022-09-23T22:18:58.251Z,101160.50
2022-09-23T22:21:26.877Z,101148.13
2022-09-23T22:23:54.001Z,101158.44
2022-09-23T22:26:20.673Z,101147.69
2022-09-23T22:29:05.698Z,101147.31
2022-09-23T22:31:50.566Z,101138.63
2022-09-23T22:34:47.371Z,101142.09
2022-09-23T22:37:03.698Z,101138.34
2022-09-23T22:39:30.536Z,101152.59
2022-09-23T22:41:58.823Z,101147.88
2022-09-23T22:44:25.661Z,101145.84
2022-09-23T22:46:52.640Z,101146.25
2022-09-23T22:49:19.767Z,101140.44
2022-09-23T22:51:46.631Z,101138.97
2022-09-23T22:54:13.135Z,101132.19
2022-09-23T22:56:39.597Z,101134.69
2022-09-23T22:59:07.935Z,101122.69
2022-09-23T23:01:35.207Z,101128.44
2022-09-23T23:04:02.426Z,101120.84
2022-09-23T23:06:35.868Z,101132.00
2022-09-23T23:09:07.125Z,101128.47
2022-09-23T23:11:33.625Z,101124.53
2022-09-23T23:14:02.172Z,101124.97
2022-09-23T23:16:35.600Z,101123.56
2022-09-23T23:19:09.481Z,101117.16
2022-09-23T23:21:37.069Z,101126.84
2022-09-23T23:24:04.700Z,101122.69
2022-09-23T23:26:33.580Z,101132.00
2022-09-23T23:29:01.406Z,101126.22
2022-09-23T23:31:29.150Z,101130.75
2022-09-23T23:33:55.592Z,101119.63
2022-09-23T23:36:23.138Z,101123.97
2022-09-23T23:38:51.629Z,101123.31
2022-09-23T23:41:20.283Z,101125.78
2022-09-23T23:43:47.638Z,101120.19
2022-09-23T23:46:14.995Z,101109.47
2022-09-23T23:48:42.978Z,101115.25
2022-09-23T23:51:11.248Z,101104.72
2022-09-23T23:53:39.675Z,101104.94
2022-09-23T23:56:08.827Z,101093.81
2022-09-23T23:58:36.878Z,101107.63
